Time;durP1;ratioP1;P1;durP2;ratioP2;P2;SDS_P1;SDS_P2;PMS_P1;PMS_P2;Temp;Humidity;BMP_temperature;BMP_pressure;BME280_temperature;BME280_humidity;BME280_pressure;Samples;Min_cycle;Max_cycle;Signal;HPM_P1;HPM_P2
2023/08/10 00:00:29;;;;;;;1.13;0.70;;;;;;;12.70;100.00;98135.44;6203356;28;20706;-57
2023/08/10 00:03:33;;;;;;;1.10;0.80;;;;;;;12.65;100.00;98130.81;6205957;28;20224;-58
2023/08/10 00:06:38;;;;;;;0.70;0.70;;;;;;;12.65;100.00;98136.16;6206672;28;20228;-55
2023/08/10 00:09:41;;;;;;;3.80;0.70;;;;;;;12.64;100.00;98129.22;6207929;28;20236;-57
2023/08/10 00:12:43;;;;;;;1.80;0.87;;;;;;;12.63;100.00;98126.78;6189202;28;20224;-57
2023/08/10 00:15:46;;;;;;;2.43;0.80;;;;;;;12.61;100.00;98134.22;6207697;28;20238;-56
2023/08/10 00:18:49;;;;;;;0.60;0.60;;;;;;;12.54;100.00;98128.25;6194508;28;20267;-54
2023/08/10 00:21:52;;;;;;;2.00;1.00;;;;;;;12.53;100.00;98132.78;6206814;28;20231;-57
2023/08/10 00:24:54;;;;;;;2.70;0.90;;;;;;;12.46;100.00;98125.97;6206200;28;20224;-57
2023/08/10 00:27:57;;;;;;;1.53;0.90;;;;;;;12.46;100.00;98134.78;6202548;28;20776;-55
2023/08/10 00:31:03;;;;;;;3.80;1.03;;;;;;;12.36;100.00;98131.94;6195279;28;20239;-55
2023/08/10 00:34:07;;;;;;;0.90;0.63;;;;;;;12.33;100.00;98129.78;6212658;28;20221;-53
2023/08/10 00:37:09;;;;;;;0.70;0.60;;;;;;;12.29;100.00;98128.63;6207807;28;20228;-56
2023/08/10 00:40:12;;;;;;;1.00;0.87;;;;;;;12.26;100.00;98135.25;6185804;28;20785;-57
2023/08/10 00:43:15;;;;;;;2.63;1.17;;;;;;;12.24;100.00;98133.91;6188954;28;20243;-57
2023/08/10 00:46:18;;;;;;;1.93;0.80;;;;;;;12.10;100.00;98128.84;6207143;28;20233;-56
2023/08/10 00:49:22;;;;;;;1.40;0.93;;;;;;;12.15;100.00;98144.16;6216012;28;20209;-57
2023/08/10 00:52:24;;;;;;;1.10;0.93;;;;;;;12.10;100.00;98138.72;6206643;28;20341;-56
2023/08/10 00:55:27;;;;;;;1.13;0.80;;;;;;;12.10;100.00;98139.53;6206026;28;20236;-58
2023/08/10 00:58:32;;;;;;;1.90;1.00;;;;;;;12.13;100.00;98140.94;6207440;28;20243;-58
2023/08/10 01:01:35;;;;;;;2.40;0.90;;;;;;;12.17;100.00;98141.25;6206248;28;20697;-55
2023/08/10 01:04:39;;;;;;;1.10;1.00;;;;;;;12.20;100.00;98138.09;6212474;28;20233;-55
2023/08/10 01:07:54;;;;;;;0.93;0.80;;;;;;;12.24;100.00;98129.38;6188892;28;20779;-55
2023/08/10 01:11:28;;;;;;;0.70;0.60;;;;;;;12.21;100.00;98126.34;6204503;28;20236;-56
2023/08/10 01:14:56;;;;;;;2.23;0.73;;;;;;;12.32;100.00;98131.66;6198041;28;20741;-55
2023/08/10 01:18:02;;;;;;;0.93;0.70;;;;;;;12.36;100.00;98138.13;6165752;28;20228;-55
2023/08/10 01:21:30;;;;;;;1.30;0.87;;;;;;;12.35;100.00;98136.50;6196579;28;20732;-56
2023/08/10 01:24:41;;;;;;;1.60;0.70;;;;;;;12.37;100.00;98149.63;6203846;28;20238;-56
2023/08/10 01:27:44;;;;;;;0.73;0.70;;;;;;;12.37;100.00;98146.97;6202956;28;20232;-55
2023/08/10 01:30:47;;;;;;;1.27;0.70;;;;;;;12.35;100.00;98147.19;6207362;28;20236;-56
2023/08/10 01:33:50;;;;;;;1.20;0.80;;;;;;;12.34;100.00;98150.09;6191501;28;20201;-56
2023/08/10 01:36:53;;;;;;;1.10;1.00;;;;;;;12.31;100.00;98146.03;6187897;28;20236;-55
2023/08/10 01:39:55;;;;;;;0.83;0.83;;;;;;;12.20;100.00;98130.88;6202438;28;20371;-56
2023/08/10 01:42:58;;;;;;;1.93;0.80;;;;;;;12.30;100.00;98140.94;6186901;28;20240;-53
2023/08/10 01:46:01;;;;;;;1.90;0.80;;;;;;;12.28;100.00;98149.19;6202095;28;20784;-54
2023/08/10 01:49:08;;;;;;;1.17;0.73;;;;;;;12.29;100.00;98140.13;6179739;28;20245;-56
2023/08/10 01:52:11;;;;;;;3.33;0.97;;;;;;;12.27;100.00;98136.09;6188687;28;20236;-56
2023/08/10 01:55:16;;;;;;;0.80;0.80;;;;;;;12.29;100.00;98147.34;6204160;28;20232;-55
2023/08/10 01:58:19;;;;;;;1.77;1.10;;;;;;;12.28;100.00;98145.72;6204009;28;20666;-56
2023/08/10 02:01:21;;;;;;;0.80;0.80;;;;;;;12.29;100.00;98150.00;6204371;28;20274;-53
2023/08/10 02:04:23;;;;;;;1.37;0.70;;;;;;;12.28;100.00;98153.75;6214217;28;20246;-56
2023/08/10 02:07:26;;;;;;;1.63;0.90;;;;;;;12.28;100.00;98156.41;6179053;28;20247;-56
2023/08/10 02:10:28;;;;;;;0.53;0.53;;;;;;;12.28;100.00;98153.75;6204401;28;20229;-55
2023/08/10 02:13:32;;;;;;;1.10;0.70;;;;;;;12.20;100.00;98140.75;6204671;28;20592;-56
2023/08/10 02:16:34;;;;;;;1.83;1.00;;;;;;;12.10;100.00;98128.84;6183386;28;20973;-56
2023/08/10 02:19:37;;;;;;;1.40;0.73;;;;;;;12.12;100.00;98148.13;6209288;28;20224;-55
2023/08/10 02:22:46;;;;;;;0.80;0.80;;;;;;;12.07;100.00;98144.56;6171435;28;20236;-54
2023/08/10 02:25:48;;;;;;;0.70;0.70;;;;;;;12.03;100.00;98148.75;6195621;28;20233;-55
2023/08/10 02:28:51;;;;;;;1.00;0.80;;;;;;;11.99;100.00;98151.09;6184978;28;20224;-56
2023/08/10 02:31:53;;;;;;;0.70;0.70;;;;;;;11.95;100.00;98155.28;6203615;28;20232;-54
2023/08/10 02:34:55;;;;;;;1.33;0.83;;;;;;;11.94;100.00;98151.00;6207637;28;20501;-56
2023/08/10 02:37:58;;;;;;;1.00;0.87;;;;;;;11.91;100.00;98151.47;6186432;28;20320;-56
2023/08/10 02:41:00;;;;;;;1.07;0.93;;;;;;;11.90;100.00;98151.72;6183153;28;20390;-56
2023/08/10 02:44:03;;;;;;;0.80;0.80;;;;;;;11.91;100.00;98147.97;6204779;28;20265;-55
2023/08/10 02:47:05;;;;;;;1.20;1.10;;;;;;;11.91;100.00;98148.78;6203743;28;20706;-57
2023/08/10 02:50:11;;;;;;;0.80;0.80;;;;;;;11.90;100.00;98155.19;6208665;28;20243;-57
2023/08/10 02:53:14;;;;;;;0.60;0.60;;;;;;;11.87;100.00;98145.81;6207182;28;20243;-57
2023/08/10 02:56:18;;;;;;;0.70;0.70;;;;;;;11.87;100.00;98155.66;6207861;28;20274;-53
2023/08/10 02:59:20;;;;;;;2.30;1.00;;;;;;;11.85;100.00;98147.09;6186566;28;20694;-56
2023/08/10 03:02:22;;;;;;;0.97;0.93;;;;;;;11.84;100.00;98153.47;6195242;28;20235;-57
2023/08/10 03:05:25;;;;;;;0.90;0.77;;;;;;;11.82;100.00;98159.06;6208319;28;20244;-57
2023/08/10 03:08:28;;;;;;;1.20;1.10;;;;;;;11.79;100.00;98161.34;6198420;28;20266;-55
2023/08/10 03:11:32;;;;;;;1.13;0.80;;;;;;;11.67;100.00;98150.69;6203180;28;20238;-56
2023/08/10 03:14:35;;;;;;;1.90;1.00;;;;;;;11.68;100.00;98167.56;6204028;28;20265;-57
2023/08/10 03:17:38;;;;;;;1.87;0.90;;;;;;;11.61;100.00;98175.66;6185724;28;20579;-56
2023/08/10 03:20:41;;;;;;;4.63;1.00;;;;;;;11.57;100.00;98170.00;6209661;28;20224;-55
2023/08/10 03:23:43;;;;;;;1.00;0.90;;;;;;;11.50;100.00;98173.84;6191021;28;20218;-56
2023/08/10 03:26:45;;;;;;;1.10;0.80;;;;;;;11.49;100.00;98182.91;6202875;28;20243;-56
2023/08/10 03:29:48;;;;;;;1.07;0.80;;;;;;;11.44;100.00;98183.59;6202782;28;20232;-56
2023/08/10 03:32:50;;;;;;;0.90;0.70;;;;;;;11.32;100.00;98174.78;6201602;28;20585;-54
2023/08/10 03:35:53;;;;;;;1.27;0.90;;;;;;;11.32;100.00;98190.81;6191573;28;20240;-54
2023/08/10 03:38:55;;;;;;;3.10;1.10;;;;;;;11.29;100.00;98191.28;6193798;28;20215;-55
2023/08/10 03:41:58;;;;;;;1.00;0.90;;;;;;;11.26;100.00;98197.88;6208826;28;20602;-56
2023/08/10 03:45:01;;;;;;;1.27;1.00;;;;;;;11.20;100.00;98196.16;6205142;28;20363;-56
2023/08/10 03:48:04;;;;;;;1.23;1.13;;;;;;;11.17;100.00;98201.13;6192287;28;20247;-55
2023/08/10 03:51:07;;;;;;;2.10;0.90;;;;;;;11.14;100.00;98204.28;6213844;28;20772;-57
2023/08/10 03:54:09;;;;;;;2.23;0.93;;;;;;;11.08;100.00;98204.16;6215624;28;20282;-56
2023/08/10 03:57:11;;;;;;;1.20;0.90;;;;;;;11.03;100.00;98204.06;6190761;28;20253;-55
2023/08/10 04:00:14;;;;;;;1.17;1.07;;;;;;;11.02;100.00;98206.94;6190805;28;20228;-59
2023/08/10 04:03:17;;;;;;;1.10;0.97;;;;;;;10.99;100.00;98208.22;6208313;28;20228;-56
2023/08/10 04:06:19;;;;;;;1.17;1.00;;;;;;;10.99;100.00;98202.88;6212498;28;20245;-53
2023/08/10 04:09:22;;;;;;;1.90;1.07;;;;;;;10.98;100.00;98203.91;6190656;28;20225;-54
2023/08/10 04:12:24;;;;;;;4.03;1.13;;;;;;;11.00;100.00;98214.34;6207836;28;20230;-56
2023/08/10 04:15:30;;;;;;;3.03;1.20;;;;;;;11.02;100.00;98214.94;6189478;28;20719;-53
2023/08/10 04:18:33;;;;;;;1.53;1.40;;;;;;;11.02;100.00;98213.06;6191203;28;20370;-56
2023/08/10 04:21:35;;;;;;;2.30;1.00;;;;;;;11.03;100.00;98214.72;6194925;28;20278;-56
2023/08/10 04:24:38;;;;;;;1.70;1.10;;;;;;;11.05;100.00;98212.63;6209284;28;20235;-55
2023/08/10 04:27:40;;;;;;;1.30;1.17;;;;;;;11.07;100.00;98210.53;6205300;28;20243;-55
2023/08/10 04:30:43;;;;;;;1.57;1.20;;;;;;;11.02;100.00;98198.94;6208522;28;20235;-56
2023/08/10 04:33:46;;;;;;;1.00;1.00;;;;;;;11.13;100.00;98214.09;6206793;28;20235;-56
2023/08/10 04:36:48;;;;;;;1.10;1.00;;;;;;;11.18;100.00;98210.75;6207528;28;20667;-54
2023/08/10 04:39:50;;;;;;;1.57;1.10;;;;;;;11.22;100.00;98211.91;6190058;28;20295;-53
2023/08/10 04:42:53;;;;;;;1.30;1.20;;;;;;;11.28;100.00;98214.47;6209400;28;20250;-57
2023/08/10 04:45:55;;;;;;;1.30;1.20;;;;;;;11.32;100.00;98218.28;6207110;28;20244;-54
2023/08/10 04:48:57;;;;;;;1.27;1.17;;;;;;;11.38;100.00;98227.22;6207827;28;20406;-54
2023/08/10 04:51:59;;;;;;;1.03;0.90;;;;;;;11.43;100.00;98227.34;6206426;28;20323;-57
2023/08/10 04:55:02;;;;;;;3.93;1.47;;;;;;;11.48;100.00;98229.31;6207030;28;20249;-55
2023/08/10 04:58:04;;;;;;;1.50;1.33;;;;;;;11.53;100.00;98232.91;6206971;28;20252;-55
2023/08/10 05:01:06;;;;;;;1.40;1.30;;;;;;;11.60;100.00;98235.44;6206770;28;20240;-55
2023/08/10 05:04:09;;;;;;;2.00;1.20;;;;;;;11.67;100.00;98235.28;6206473;28;20323;-52
2023/08/10 05:07:11;;;;;;;1.30;0.93;;;;;;;11.72;100.00;98238.06;6212989;28;20236;-56
2023/08/10 05:10:13;;;;;;;2.60;1.07;;;;;;;11.78;100.00;98243.28;6206817;28;20238;-55
2023/08/10 05:13:16;;;;;;;1.83;0.80;;;;;;;11.83;100.00;98239.97;6207388;28;20235;-56
2023/08/10 05:16:18;;;;;;;1.00;0.90;;;;;;;11.88;100.00;98229.38;6207034;28;20236;-54
2023/08/10 05:19:20;;;;;;;1.07;1.00;;;;;;;11.90;100.00;98242.47;6205832;28;20232;-56
2023/08/10 05:22:23;;;;;;;2.03;0.90;;;;;;;11.91;100.00;98247.56;6206346;28;20602;-56
2023/08/10 05:25:25;;;;;;;2.03;1.00;;;;;;;11.93;100.00;98245.50;6206203;28;20240;-53
2023/08/10 05:28:27;;;;;;;0.90;0.80;;;;;;;11.96;100.00;98244.19;6201215;28;20228;-56
2023/08/10 05:31:29;;;;;;;3.63;1.40;;;;;;;11.91;100.00;98236.91;6204747;28;20268;-56
2023/08/10 05:34:32;;;;;;;1.00;0.90;;;;;;;12.00;100.00;98245.34;6189573;28;20247;-55
2023/08/10 05:37:35;;;;;;;1.33;0.93;;;;;;;12.02;100.00;98252.09;6206046;28;20236;-56
2023/08/10 05:40:37;;;;;;;1.30;1.10;;;;;;;12.10;100.00;98251.69;6202456;28;20607;-57
2023/08/10 05:43:39;;;;;;;1.23;1.00;;;;;;;12.13;100.00;98245.09;6204992;28;20315;-56
2023/08/10 05:46:42;;;;;;;1.10;1.00;;;;;;;12.22;100.00;98254.34;6206236;28;20248;-55
2023/08/10 05:49:44;;;;;;;1.30;1.20;;;;;;;12.33;100.00;98248.13;6205794;28;20232;-57
2023/08/10 05:52:48;;;;;;;1.20;1.10;;;;;;;12.34;100.00;98235.59;6192432;28;20411;-57
2023/08/10 05:55:50;;;;;;;1.27;1.13;;;;;;;12.53;100.00;98245.03;6207679;28;20239;-56
2023/08/10 05:58:52;;;;;;;0.90;0.90;;;;;;;12.59;100.00;98252.06;6205011;28;20236;-56
2023/08/10 06:01:55;;;;;;;1.27;1.00;;;;;;;12.68;100.00;98247.16;6204870;28;20239;-56
2023/08/10 06:04:57;;;;;;;1.40;1.20;;;;;;;12.77;100.00;98248.38;6205370;28;20232;-57
2023/08/10 06:07:59;;;;;;;4.63;1.60;;;;;;;12.87;100.00;98247.75;6211080;28;20286;-56
2023/08/10 06:11:03;;;;;;;2.73;1.77;;;;;;;12.94;100.00;98250.25;6204827;28;20236;-56
2023/08/10 06:14:05;;;;;;;3.40;1.70;;;;;;;12.99;100.00;98247.66;6204967;28;20236;-55
2023/08/10 06:17:08;;;;;;;1.40;1.30;;;;;;;13.00;100.00;98238.56;6204207;28;20236;-57
2023/08/10 06:20:16;;;;;;;3.30;1.40;;;;;;;13.10;100.00;98247.59;6207608;28;20235;-56
2023/08/10 06:23:19;;;;;;;1.37;1.27;;;;;;;13.17;100.00;98253.56;6209840;28;20776;-57
2023/08/10 06:26:21;;;;;;;2.13;1.40;;;;;;;13.23;100.00;98248.34;6205110;28;20212;-57
2023/08/10 06:29:23;;;;;;;1.33;1.23;;;;;;;13.32;100.00;98253.03;6203685;28;20373;-57
2023/08/10 06:32:26;;;;;;;2.53;1.97;;;;;;;13.45;100.00;98249.22;6208602;28;20232;-56
2023/08/10 06:35:28;;;;;;;4.60;2.20;;;;;;;13.62;100.00;98252.66;6196542;28;20235;-57
2023/08/10 06:38:30;;;;;;;2.57;2.20;;;;;;;13.83;100.00;98253.72;6209478;28;20232;-55
2023/08/10 06:41:32;;;;;;;3.03;2.73;;;;;;;14.03;100.00;98253.16;6187471;28;20298;-57
2023/08/10 06:44:35;;;;;;;5.63;1.90;;;;;;;14.17;100.00;98259.75;6207826;28;20228;-57
2023/08/10 06:47:37;;;;;;;2.27;2.07;;;;;;;14.30;100.00;98261.25;6201310;28;20224;-57
2023/08/10 06:50:40;;;;;;;2.10;1.90;;;;;;;14.41;100.00;98259.47;6204515;28;20787;-57
2023/08/10 06:53:43;;;;;;;2.73;2.20;;;;;;;14.52;100.00;98260.44;6209643;28;20323;-57
2023/08/10 06:56:45;;;;;;;3.63;2.50;;;;;;;14.62;100.00;98260.53;6206501;28;21014;-55
2023/08/10 06:59:48;;;;;;;2.03;1.83;;;;;;;14.77;100.00;98260.66;6204160;28;20232;-57
2023/08/10 07:02:54;;;;;;;2.17;1.70;;;;;;;14.96;100.00;98263.78;6204011;28;20745;-56
2023/08/10 07:05:57;;;;;;;1.90;1.70;;;;;;;15.23;98.90;98267.25;6200202;28;20319;-57
2023/08/10 07:09:00;;;;;;;1.40;1.30;;;;;;;15.46;92.24;98266.03;6209283;28;20228;-56
2023/08/10 07:12:04;;;;;;;2.07;1.80;;;;;;;15.60;94.32;98265.59;6204187;28;20298;-58
2023/08/10 07:15:07;;;;;;;2.03;1.70;;;;;;;15.66;97.11;98275.31;6203154;28;20218;-57
2023/08/10 07:18:09;;;;;;;4.00;1.67;;;;;;;15.65;98.26;98273.69;6208460;28;20243;-57
2023/08/10 07:21:13;;;;;;;2.63;1.70;;;;;;;15.66;94.52;98275.31;6207207;28;20763;-57
2023/08/10 07:24:15;;;;;;;2.57;1.57;;;;;;;15.71;91.27;98283.41;6214549;28;20219;-58
2023/08/10 07:27:17;;;;;;;1.60;1.50;;;;;;;15.73;89.18;98275.91;6206655;28;20228;-57
2023/08/10 07:30:25;;;;;;;2.10;1.93;;;;;;;15.76;91.88;98278.06;6210589;28;20236;-56
2023/08/10 07:33:28;;;;;;;1.80;1.70;;;;;;;15.77;90.02;98277.00;6209510;28;20601;-57
2023/08/10 07:36:30;;;;;;;1.90;1.80;;;;;;;15.78;93.30;98286.69;6206824;28;20358;-57
2023/08/10 07:39:33;;;;;;;1.83;1.60;;;;;;;15.82;94.93;98289.66;6217713;28;20217;-57
2023/08/10 07:42:37;;;;;;;1.50;1.40;;;;;;;15.84;88.25;98292.88;6192660;28;20224;-55
2023/08/10 07:45:41;;;;;;;1.73;1.63;;;;;;;15.94;85.77;98290.25;6195723;28;20698;-58
2023/08/10 07:48:48;;;;;;;1.60;1.50;;;;;;;15.98;84.33;98296.72;6214129;28;20228;-57
2023/08/10 07:51:53;;;;;;;1.70;1.60;;;;;;;16.00;81.59;98289.19;6202286;28;20229;-58
2023/08/10 07:54:59;;;;;;;1.50;1.40;;;;;;;15.98;82.78;98289.47;6210670;28;20746;-56
2023/08/10 07:58:03;;;;;;;1.90;1.63;;;;;;;15.94;83.53;98292.94;6212129;28;20236;-57
2023/08/10 08:01:07;;;;;;;2.03;1.77;;;;;;;16.04;82.95;98289.50;6212069;28;20224;-57
2023/08/10 08:04:12;;;;;;;1.90;1.70;;;;;;;16.05;82.38;98297.28;6194340;28;20318;-57
2023/08/10 08:07:14;;;;;;;1.30;1.20;;;;;;;15.98;82.73;98288.66;6207697;28;20845;-57
2023/08/10 08:10:17;;;;;;;3.73;1.63;;;;;;;16.25;82.84;98297.41;6193033;28;20247;-57
2023/08/10 08:13:19;;;;;;;1.40;1.30;;;;;;;16.42;82.58;98296.38;6210579;28;20225;-57
2023/08/10 08:16:22;;;;;;;1.60;1.50;;;;;;;16.34;83.48;98294.97;6196660;28;20716;-57
2023/08/10 08:19:25;;;;;;;2.13;1.23;;;;;;;16.33;85.24;98296.06;6209317;28;20247;-57
2023/08/10 08:22:27;;;;;;;1.47;1.37;;;;;;;16.40;81.64;98293.13;6212109;28;20232;-57
2023/08/10 08:25:29;;;;;;;1.30;1.20;;;;;;;16.69;79.38;98293.47;6210801;28;20240;-58
2023/08/10 08:28:40;;;;;;;1.87;1.57;;;;;;;16.89;78.58;98284.66;6204906;28;20243;-58
2023/08/10 08:31:48;;;;;;;3.17;1.23;;;;;;;17.11;76.37;98277.13;6206099;28;20706;-58
2023/08/10 08:34:52;;;;;;;2.80;1.63;;;;;;;17.14;78.37;98292.75;6207654;28;20233;-58
2023/08/10 08:37:59;;;;;;;2.23;1.50;;;;;;;16.99;77.39;98296.25;6188876;28;20229;-58
2023/08/10 08:41:08;;;;;;;1.50;1.40;;;;;;;16.90;77.96;98291.66;6210968;28;20228;-58
2023/08/10 08:44:11;;;;;;;1.40;1.30;;;;;;;16.81;79.17;98304.03;6209978;28;20232;-58
2023/08/10 08:47:14;;;;;;;1.47;1.37;;;;;;;16.71;79.94;98302.94;6213721;28;20232;-57
2023/08/10 08:50:18;;;;;;;1.50;1.40;;;;;;;16.66;80.12;98310.16;6204691;28;20236;-56
2023/08/10 08:53:22;;;;;;;2.53;1.60;;;;;;;16.58;80.70;98314.16;6208779;28;20233;-58
2023/08/10 08:56:27;;;;;;;2.63;1.87;;;;;;;16.46;80.70;98300.94;6199122;28;20264;-58
2023/08/10 08:59:34;;;;;;;1.50;1.40;;;;;;;16.48;81.99;98304.19;6193163;28;20591;-58
2023/08/10 09:02:37;;;;;;;2.17;1.97;;;;;;;16.38;82.45;98303.34;6212540;28;20227;-58
2023/08/10 09:05:42;;;;;;;2.47;1.87;;;;;;;16.47;80.28;98315.22;6196443;28;20237;-58
2023/08/10 09:08:47;;;;;;;2.10;1.50;;;;;;;16.46;81.31;98300.94;6169506;28;20238;-57
2023/08/10 09:11:50;;;;;;;2.80;1.97;;;;;;;16.60;77.24;98298.56;6209747;28;20228;-58
2023/08/10 09:15:05;;;;;;;1.50;1.37;;;;;;;16.94;77.61;98290.84;6212584;28;20597;-58
2023/08/10 09:18:08;;;;;;;2.07;1.80;;;;;;;17.23;73.53;98293.81;6208895;28;20244;-58
2023/08/10 09:21:20;;;;;;;4.40;1.93;;;;;;;17.44;76.75;98286.53;6211910;28;20231;-57
2023/08/10 09:24:23;;;;;;;2.47;1.60;;;;;;;17.69;73.97;98292.97;6212053;28;20235;-58
2023/08/10 09:27:28;;;;;;;2.17;1.97;;;;;;;17.94;74.43;98294.81;6209784;28;20279;-57
2023/08/10 09:30:33;;;;;;;1.87;1.77;;;;;;;17.91;73.02;98298.88;6209364;28;20231;-57
2023/08/10 09:33:37;;;;;;;2.13;1.93;;;;;;;17.70;74.19;98289.19;6210514;28;20231;-58
2023/08/10 09:36:51;;;;;;;1.80;1.70;;;;;;;17.35;74.86;98298.94;6191301;28;20604;-57
2023/08/10 09:39:56;;;;;;;2.40;1.83;;;;;;;17.16;77.52;98295.97;6186356;28;20236;-58
2023/08/10 09:42:58;;;;;;;2.57;1.70;;;;;;;16.95;78.78;98294.34;6186803;28;20229;-58
2023/08/10 09:46:05;;;;;;;2.53;2.07;;;;;;;16.76;81.16;98291.38;6206165;28;20240;-58
2023/08/10 09:49:08;;;;;;;1.80;1.70;;;;;;;16.80;80.02;98288.94;6212467;28;20237;-57
2023/08/10 09:52:12;;;;;;;2.20;2.00;;;;;;;16.76;78.15;98286.00;6192211;28;20240;-57
2023/08/10 09:55:15;;;;;;;2.60;1.93;;;;;;;17.00;75.31;98295.16;6207982;28;20220;-58
2023/08/10 09:58:18;;;;;;;2.13;1.87;;;;;;;17.20;73.35;98299.75;6208625;28;20236;-57
2023/08/10 10:01:21;;;;;;;2.63;1.90;;;;;;;17.25;73.39;98299.75;6194703;28;20713;-58
2023/08/10 10:04:28;;;;;;;2.30;1.80;;;;;;;17.31;71.65;98289.78;6191453;28;20232;-58
2023/08/10 10:07:31;;;;;;;2.50;1.93;;;;;;;17.41;71.70;98310.50;6209618;28;20733;-58
2023/08/10 10:10:36;;;;;;;2.37;1.80;;;;;;;17.39;71.31;98301.88;6206682;28;20230;-58
2023/08/10 10:13:40;;;;;;;1.60;1.50;;;;;;;17.33;73.83;98306.47;6207600;28;20235;-57
2023/08/10 10:16:43;;;;;;;2.10;1.90;;;;;;;17.48;70.18;98301.06;6205651;28;20263;-57
2023/08/10 10:19:49;;;;;;;1.77;1.60;;;;;;;17.75;68.72;98292.72;6207374;28;20614;-58
2023/08/10 10:22:51;;;;;;;2.70;1.67;;;;;;;17.97;64.69;98291.56;6208032;28;20236;-56
2023/08/10 10:26:03;;;;;;;1.80;1.70;;;;;;;18.06;64.01;98287.22;6212644;28;20318;-58
2023/08/10 10:29:13;;;;;;;1.83;1.23;;;;;;;18.16;62.72;98278.28;6208820;28;20232;-58
2023/08/10 10:32:18;;;;;;;1.50;1.40;;;;;;;18.22;67.23;98296.84;6186995;28;20236;-57
2023/08/10 10:35:31;;;;;;;2.27;1.73;;;;;;;18.39;62.56;98291.13;6207386;28;20367;-57
2023/08/10 10:38:36;;;;;;;2.07;1.63;;;;;;;18.07;65.20;98299.63;6208828;28;20229;-57
2023/08/10 10:41:42;;;;;;;1.63;1.50;;;;;;;17.94;65.82;98290.25;6207094;28;20690;-57
2023/08/10 10:45:15;;;;;;;1.70;1.60;;;;;;;17.87;68.02;98286.19;6203445;28;20283;-57
2023/08/10 10:48:35;;;;;;;1.40;1.30;;;;;;;17.84;69.81;98282.19;6183353;28;20593;-58
2023/08/10 10:51:58;;;;;;;1.50;1.40;;;;;;;17.84;72.90;98284.06;6205925;28;20260;-58
2023/08/10 10:55:03;;;;;;;1.67;1.40;;;;;;;17.88;69.17;98275.16;6205124;28;20232;-56
2023/08/10 10:58:07;;;;;;;1.90;1.80;;;;;;;18.12;69.86;98261.84;6206324;28;20236;-58
2023/08/10 11:01:10;;;;;;;2.43;1.70;;;;;;;18.35;71.43;98256.91;6197964;28;20236;-57
2023/08/10 11:04:12;;;;;;;1.83;1.70;;;;;;;18.52;59.80;98260.84;6188674;28;20243;-57
2023/08/10 11:07:14;;;;;;;1.40;1.30;;;;;;;18.73;59.97;98269.66;6189131;28;20321;-57
2023/08/10 11:10:19;;;;;;;1.87;1.77;;;;;;;18.86;60.37;98270.09;6206967;28;20227;-56
2023/08/10 11:13:24;;;;;;;1.67;1.57;;;;;;;18.73;62.83;98271.53;6206678;28;20255;-58
2023/08/10 11:16:26;;;;;;;2.33;1.53;;;;;;;18.61;62.94;98271.03;6209654;28;20366;-58
2023/08/10 11:19:30;;;;;;;1.77;1.67;;;;;;;18.46;65.96;98278.13;6206869;28;20236;-58
2023/08/10 11:22:37;;;;;;;1.73;1.63;;;;;;;18.36;67.41;98272.00;6204579;28;20269;-57
2023/08/10 11:25:51;;;;;;;1.67;1.57;;;;;;;18.27;68.64;98269.06;6202753;28;20236;-57
2023/08/10 11:28:53;;;;;;;1.93;1.83;;;;;;;18.20;65.22;98255.88;6207854;28;20240;-55
2023/08/10 11:31:56;;;;;;;2.33;1.93;;;;;;;18.34;69.11;98263.38;6202058;28;20706;-56
2023/08/10 11:35:03;;;;;;;2.00;1.80;;;;;;;18.66;60.73;98261.00;6206540;28;20252;-57
2023/08/10 11:38:06;;;;;;;1.83;1.70;;;;;;;18.72;60.90;98267.25;6189009;28;20240;-58
2023/08/10 11:41:08;;;;;;;2.00;1.67;;;;;;;18.66;62.36;98279.09;6205827;28;20236;-56
2023/08/10 11:44:25;;;;;;;2.60;1.80;;;;;;;18.59;61.53;98284.81;6206808;28;20294;-58
2023/08/10 11:47:41;;;;;;;3.03;2.10;;;;;;;18.69;62.17;98265.09;6204906;28;20651;-58
2023/08/10 11:50:47;;;;;;;2.30;2.10;;;;;;;19.01;64.01;98269.97;6203660;28;20363;-58
2023/08/10 11:53:50;;;;;;;2.47;2.27;;;;;;;19.13;59.04;98265.03;6206841;28;20327;-57
2023/08/10 11:56:52;;;;;;;2.50;1.73;;;;;;;19.21;60.50;98260.91;6206615;28;20602;-57
2023/08/10 11:59:54;;;;;;;2.30;1.93;;;;;;;19.15;60.15;98276.34;6205811;28;20604;-58
2023/08/10 12:03:07;;;;;;;2.00;1.80;;;;;;;18.89;61.47;98286.53;6208119;28;20236;-57
2023/08/10 12:06:09;;;;;;;2.00;1.90;;;;;;;18.89;59.18;98280.34;6211979;28;20232;-58
2023/08/10 12:09:12;;;;;;;2.17;1.97;;;;;;;18.99;64.45;98294.56;6215735;28;20220;-56
2023/08/10 12:12:15;;;;;;;2.20;2.00;;;;;;;18.94;61.28;98291.09;6209104;28;20216;-58
2023/08/10 12:15:23;;;;;;;2.20;2.03;;;;;;;18.91;59.66;98272.75;6208520;28;20220;-58
2023/08/10 12:18:26;;;;;;;3.00;2.10;;;;;;;19.08;60.50;98284.78;6210605;28;20229;-56
2023/08/10 12:21:30;;;;;;;2.77;2.50;;;;;;;18.87;61.84;98271.72;6210346;28;20234;-57
2023/08/10 12:24:34;;;;;;;4.03;2.60;;;;;;;19.06;63.71;98291.53;6210936;28;20363;-58
2023/08/10 12:27:37;;;;;;;3.60;2.70;;;;;;;19.09;63.92;98296.38;6209212;28;20224;-58
2023/08/10 12:30:41;;;;;;;2.30;2.10;;;;;;;19.01;62.31;98289.72;6212106;28;20224;-56
2023/08/10 12:33:44;;;;;;;3.50;2.57;;;;;;;19.01;60.46;98296.97;6209357;28;21113;-57
2023/08/10 12:36:47;;;;;;;2.77;2.40;;;;;;;19.31;58.67;98293.25;6216790;28;20236;-55
2023/08/10 12:39:49;;;;;;;3.80;2.70;;;;;;;19.32;57.12;98287.56;6206662;28;20236;-57
2023/08/10 12:42:52;;;;;;;2.17;2.00;;;;;;;19.31;53.14;98285.97;6210848;28;20228;-58
2023/08/10 12:45:54;;;;;;;2.67;1.80;;;;;;;19.18;54.21;98283.09;6209974;28;20726;-58
2023/08/10 12:48:56;;;;;;;2.10;2.00;;;;;;;19.11;55.38;98290.69;6210511;28;20298;-58
2023/08/10 12:51:59;;;;;;;2.00;1.83;;;;;;;19.01;55.67;98291.59;6209338;28;20235;-56
2023/08/10 12:55:02;;;;;;;1.83;1.67;;;;;;;18.76;52.61;98269.06;6211567;28;20315;-56
2023/08/10 12:58:05;;;;;;;2.30;1.30;;;;;;;18.89;52.69;98296.53;6209326;28;20238;-57
2023/08/10 13:01:07;;;;;;;2.03;1.60;;;;;;;18.89;51.40;98294.66;6209808;28;20236;-58
2023/08/10 13:04:09;;;;;;;1.63;1.53;;;;;;;18.65;53.07;98291.00;6191902;28;20728;-58
2023/08/10 13:07:12;;;;;;;1.50;1.40;;;;;;;18.62;54.46;98292.38;6210660;28;20290;-58
2023/08/10 13:10:18;;;;;;;1.80;1.70;;;;;;;18.59;56.31;98289.41;6209570;28;20233;-57
2023/08/10 13:13:20;;;;;;;1.53;1.43;;;;;;;18.59;57.70;98300.22;6208157;28;20235;-56
2023/08/10 13:16:23;;;;;;;1.87;1.70;;;;;;;18.60;56.92;98296.41;6208585;28;20271;-55
2023/08/10 13:19:28;;;;;;;1.60;1.50;;;;;;;18.39;54.92;98293.84;6212306;28;20295;-57
2023/08/10 13:22:33;;;;;;;1.43;1.33;;;;;;;18.30;56.11;98304.38;6210407;28;20451;-58
2023/08/10 13:25:35;;;;;;;1.73;1.43;;;;;;;18.21;57.76;98297.94;6209248;28;20701;-56
2023/08/10 13:28:37;;;;;;;1.53;1.37;;;;;;;18.18;60.78;98297.72;6206003;28;20235;-56
2023/08/10 13:31:39;;;;;;;1.50;1.40;;;;;;;18.14;61.33;98305.53;6210227;28;20239;-56
2023/08/10 13:34:41;;;;;;;1.50;1.40;;;;;;;18.10;62.15;98304.47;6206640;28;20710;-58
2023/08/10 13:37:44;;;;;;;1.63;1.53;;;;;;;18.10;64.80;98306.34;6206364;28;20236;-58
2023/08/10 13:40:46;;;;;;;1.60;1.50;;;;;;;18.11;59.23;98307.97;6202442;28;20603;-56
2023/08/10 13:43:48;;;;;;;1.47;1.37;;;;;;;18.28;56.76;98309.25;6205875;28;20310;-53
2023/08/10 13:46:50;;;;;;;1.53;1.40;;;;;;;18.35;56.50;98306.25;6189078;28;20609;-57
2023/08/10 13:49:52;;;;;;;1.40;1.30;;;;;;;18.33;57.91;98318.41;6206288;28;20236;-56
2023/08/10 13:52:56;;;;;;;1.50;1.27;;;;;;;18.22;59.44;98320.31;6205909;28;20236;-54
2023/08/10 13:55:59;;;;;;;2.10;1.70;;;;;;;18.25;58.51;98309.81;6206851;28;20324;-55
2023/08/10 13:59:01;;;;;;;1.50;1.40;;;;;;;18.18;60.19;98309.31;6205429;28;20366;-57
2023/08/10 14:02:05;;;;;;;1.53;1.20;;;;;;;18.23;60.88;98308.47;6204509;28;20229;-57
2023/08/10 14:05:09;;;;;;;1.80;1.40;;;;;;;18.23;63.69;98301.19;6202109;28;20244;-57
2023/08/10 14:08:11;;;;;;;1.80;1.40;;;;;;;18.26;63.40;98300.63;6205595;28;20251;-56
2023/08/10 14:11:13;;;;;;;3.10;1.40;;;;;;;18.31;66.55;98303.28;6206817;28;20250;-55
2023/08/10 14:14:18;;;;;;;1.90;1.60;;;;;;;18.30;68.46;98311.66;6193672;28;20371;-57
2023/08/10 14:17:20;;;;;;;1.50;1.40;;;;;;;18.26;69.15;98305.22;6205881;28;20770;-56
2023/08/10 14:20:22;;;;;;;1.33;1.20;;;;;;;18.28;68.92;98297.66;6207958;28;20239;-55